createdAt,value
2023-02-05T00:00:52.895Z,-3.52
2023-02-05T00:01:49.607Z,-3.40
2023-02-05T00:02:47.464Z,-3.59
2023-02-05T00:03:44.201Z,-3.04
2023-02-05T00:04:40.904Z,-3.48
2023-02-05T00:05:37.586Z,-3.44
2023-02-05T00:06:34.201Z,-3.51
2023-02-05T00:07:30.746Z,-3.04
2023-02-05T00:08:27.661Z,-3.42
2023-02-05T00:09:24.292Z,-3.70
2023-02-05T00:10:21.002Z,-3.79
2023-02-05T00:11:17.897Z,-3.19
2023-02-05T00:12:14.612Z,-3.08
2023-02-05T00:13:11.193Z,-2.88
2023-02-05T00:14:07.848Z,-3.22
2023-02-05T00:15:05.414Z,-3.51
2023-02-05T00:16:17.676Z,-3.74
2023-02-05T00:17:14.365Z,-3.44
2023-02-05T00:18:10.968Z,-3.57
2023-02-05T00:19:08.577Z,-3.95
2023-02-05T00:20:06.257Z,-3.38
2023-02-05T00:21:03.358Z,-3.74
2023-02-05T00:22:00.014Z,-3.54
2023-02-05T00:22:57.237Z,-3.84
2023-02-05T00:23:54.166Z,-3.67
2023-02-05T00:24:50.707Z,-3.97
2023-02-05T00:25:47.342Z,-3.88
2023-02-05T00:26:43.925Z,-4.17
2023-02-05T00:27:41.725Z,-4.29
2023-02-05T00:28:38.398Z,-4.20
2023-02-05T00:29:35.042Z,-3.87
2023-02-05T00:30:31.721Z,-3.51
2023-02-05T00:31:28.613Z,-4.04
2023-02-05T00:32:25.267Z,-3.56
2023-02-05T00:33:22.026Z,-3.83
2023-02-05T00:34:18.969Z,-3.80
2023-02-05T00:35:15.571Z,-4.00
2023-02-05T00:36:13.491Z,-3.91
2023-02-05T00:37:10.125Z,-4.04
2023-02-05T00:38:06.686Z,-3.93
2023-02-05T00:39:03.326Z,-3.85
2023-02-05T00:39:59.912Z,-3.65
2023-02-05T00:40:56.509Z,-4.04
2023-02-05T00:41:53.172Z,-3.98
2023-02-05T00:42:49.823Z,-4.20
2023-02-05T00:43:46.631Z,-3.88
2023-02-05T00:44:43.229Z,-4.00
2023-02-05T00:45:39.837Z,-4.02
2023-02-05T00:46:36.414Z,-3.54
2023-02-05T00:47:33.040Z,-4.02
2023-02-05T00:48:29.887Z,-4.23
2023-02-05T00:49:26.675Z,-4.02
2023-02-05T00:50:23.431Z,-3.85
2023-02-05T00:51:20.066Z,-4.11
2023-02-05T00:52:16.822Z,-4.00
2023-02-05T00:53:13.391Z,-4.02
2023-02-05T00:54:10.194Z,-3.75
2023-02-05T00:55:07.036Z,-3.76
2023-02-05T00:56:03.849Z,-3.88
2023-02-05T00:57:00.680Z,-3.70
2023-02-05T00:57:57.385Z,-3.90
2023-02-05T00:58:54.047Z,-3.85
2023-02-05T00:59:52.493Z,-3.90
2023-02-05T01:00:50.617Z,-4.31
2023-02-05T01:01:47.265Z,-3.95
2023-02-05T01:02:43.997Z,-4.33
2023-02-05T01:03:41.320Z,-4.15
2023-02-05T01:04:37.940Z,-3.70
2023-02-05T01:05:36.134Z,-4.25
2023-02-05T01:06:32.967Z,-3.92
2023-02-05T01:07:29.590Z,-4.00
2023-02-05T01:08:26.159Z,-4.01
2023-02-05T01:09:23.204Z,-3.99
2023-02-05T01:10:19.886Z,-4.26
2023-02-05T01:11:16.639Z,-3.95
2023-02-05T01:12:14.373Z,-4.02
2023-02-05T01:13:11.006Z,-3.88
2023-02-05T01:14:07.590Z,-4.49
2023-02-05T01:15:06.403Z,-3.64
2023-02-05T01:16:03.427Z,-3.72
2023-02-05T01:17:00.082Z,-3.79
2023-02-05T01:17:58.129Z,-3.83
2023-02-05T01:18:56.836Z,-3.80
2023-02-05T01:19:53.600Z,-3.69
2023-02-05T01:20:50.310Z,-3.84
2023-02-05T01:21:46.912Z,-3.43
2023-02-05T01:22:43.821Z,-3.80
2023-02-05T01:23:40.424Z,-3.85
2023-02-05T01:24:37.839Z,-3.56
2023-02-05T01:25:34.863Z,-4.31
2023-02-05T01:26:31.782Z,-3.99
2023-02-05T01:27:28.389Z,-3.98
2023-02-05T01:28:25.125Z,-4.15
2023-02-05T01:29:22.850Z,-3.90
2023-02-05T01:30:19.460Z,-4.11
2023-02-05T01:31:16.417Z,-4.74
2023-02-05T01:32:13.070Z,-3.84
2023-02-05T01:33:09.665Z,-3.87
2023-02-05T01:34:06.224Z,-3.90
2023-02-05T01:35:02.878Z,-3.75
2023-02-05T01:35:59.448Z,-3.80
2023-02-05T01:36:56.093Z,-3.98
2023-02-05T01:37:52.678Z,-3.98
2023-02-05T01:38:49.257Z,-3.93
2023-02-05T01:39:46.017Z,-4.01
2023-02-05T01:40:42.780Z,-3.98
2023-02-05T01:41:42.778Z,-4.10
2023-02-05T01:42:41.645Z,-3.86
2023-02-05T01:43:38.219Z,-4.07
2023-02-05T01:44:34.824Z,-4.28
2023-02-05T01:45:51.025Z,-3.95
2023-02-05T01:46:48.310Z,-3.56
2023-02-05T01:47:44.924Z,-3.64
2023-02-05T01:48:46.013Z,-3.64
2023-02-05T01:49:43.953Z,-3.64
2023-02-05T01:50:45.312Z,-3.88
2023-02-05T01:51:42.283Z,-3.98
2023-02-05T01:52:38.938Z,-4.32
2023-02-05T01:53:37.415Z,-4.19
2023-02-05T01:54:37.982Z,-4.04
2023-02-05T01:55:39.667Z,-4.28
2023-02-05T01:57:00.956Z,-3.75
2023-02-05T01:57:59.935Z,-3.84
2023-02-05T01:59:09.556Z,-3.82
2023-02-05T02:00:07.645Z,-4.53
2023-02-05T02:01:04.529Z,-4.37
2023-02-05T02:02:02.686Z,-4.50
2023-02-05T02:02:59.945Z,-3.93
2023-02-05T02:03:59.634Z,-4.10
2023-02-05T02:05:02.049Z,-3.91
2023-02-05T02:05:59.116Z,-3.99
2023-02-05T02:06:55.734Z,-4.22
2023-02-05T02:07:52.376Z,-4.19
2023-02-05T02:08:48.978Z,-3.98
2023-02-05T02:09:47.765Z,-4.11
2023-02-05T02:10:46.692Z,-4.11
2023-02-05T02:11:44.741Z,-4.26
2023-02-05T02:12:44.151Z,-4.62
2023-02-05T02:13:59.070Z,-4.00
2023-02-05T02:15:00.192Z,-3.89
2023-02-05T02:15:57.779Z,-3.87
2023-02-05T02:16:55.351Z,-3.93
2023-02-05T02:18:17.310Z,-3.93
2023-02-05T02:19:26.403Z,-4.30
2023-02-05T02:20:35.600Z,-4.45
2023-02-05T02:21:32.172Z,-3.92
2023-02-05T02:22:38.761Z,-4.10
2023-02-05T02:23:53.314Z,-4.23
2023-02-05T02:25:02.119Z,-4.00
2023-02-05T02:26:23.665Z,-4.21
2023-02-05T02:27:49.666Z,-4.13
2023-02-05T02:28:51.991Z,-4.21
2023-02-05T02:30:12.522Z,-4.19
2023-02-05T02:31:11.362Z,-4.19
2023-02-05T02:32:16.918Z,-4.13
2023-02-05T02:33:31.552Z,-3.96
2023-02-05T02:34:40.182Z,-4.21
2023-02-05T02:35:42.538Z,-4.35
2023-02-05T02:36:53.393Z,-4.28
2023-02-05T02:37:56.775Z,-4.19
2023-02-05T02:39:05.315Z,-3.62
2023-02-05T02:40:31.093Z,-3.81
2023-02-05T02:41:39.780Z,-3.72
2023-02-05T02:42:46.317Z,-4.08
2023-02-05T02:43:48.916Z,-3.96
2023-02-05T02:44:59.015Z,-4.32
2023-02-05T02:46:01.476Z,-4.15
2023-02-05T02:47:03.048Z,-4.54
2023-02-05T02:48:01.128Z,-4.11
2023-02-05T02:49:03.976Z,-4.69
2023-02-05T02:50:10.110Z,-4.40
2023-02-05T02:51:09.312Z,-4.19
2023-02-05T02:52:10.008Z,-4.34
2023-02-05T02:53:19.521Z,-4.56
2023-02-05T02:54:20.201Z,-4.07
2023-02-05T02:55:18.459Z,-3.89
2023-02-05T02:56:17.504Z,-3.64
2023-02-05T02:57:16.002Z,-4.58
2023-02-05T02:58:24.470Z,-4.30
2023-02-05T02:59:25.777Z,-4.36
2023-02-05T03:00:26.396Z,-4.18
2023-02-05T03:01:26.039Z,-3.74
2023-02-05T03:02:23.066Z,-4.12
2023-02-05T03:03:22.642Z,-4.47
2023-02-05T03:04:29.946Z,-4.70
2023-02-05T03:05:29.626Z,-4.93
2023-02-05T03:06:29.643Z,-4.59
2023-02-05T03:07:31.577Z,-4.72
2023-02-05T03:08:34.716Z,-4.55
2023-02-05T03:09:39.407Z,-4.35
2023-02-05T03:10:44.581Z,-4.26
2023-02-05T03:11:41.201Z,-4.15
2023-02-05T03:12:37.844Z,-4.11
2023-02-05T03:13:35.420Z,-4.18
2023-02-05T03:14:32.078Z,-4.25
2023-02-05T03:15:28.736Z,-4.51
2023-02-05T03:16:27.716Z,-4.25
2023-02-05T03:17:26.521Z,-4.18
2023-02-05T03:18:23.898Z,-4.14
2023-02-05T03:19:20.718Z,-4.00
2023-02-05T03:20:22.849Z,-3.75
2023-02-05T03:21:29.059Z,-4.37
2023-02-05T03:22:25.642Z,-4.24
2023-02-05T03:23:23.073Z,-3.86
2023-02-05T03:24:20.302Z,-3.87
2023-02-05T03:25:20.083Z,-4.40
2023-02-05T03:26:29.188Z,-4.30
2023-02-05T03:27:25.850Z,-4.53
2023-02-05T03:28:23.549Z,-4.34
2023-02-05T03:29:39.295Z,-4.55
2023-02-05T03:31:01.258Z,-4.36
2023-02-05T03:32:18.934Z,-4.14
2023-02-05T03:33:47.766Z,-4.41
2023-02-05T03:35:18.562Z,-4.06
2023-02-05T03:36:33.066Z,-4.10
2023-02-05T03:37:39.143Z,-4.46
2023-02-05T03:39:31.663Z,-4.17
2023-02-05T03:40:50.222Z,-3.69
2023-02-05T03:42:13.570Z,-4.15
2023-02-05T03:43:24.611Z,-4.00
2023-02-05T03:44:58.879Z,-3.93
2023-02-05T03:46:00.740Z,-4.17
2023-02-05T03:47:00.928Z,-5.02
2023-02-05T03:48:16.936Z,-4.32
2023-02-05T03:49:19.438Z,-4.17
2023-02-05T03:50:15.978Z,-4.02
2023-02-05T03:51:29.777Z,-4.43
2023-02-05T03:52:35.765Z,-4.13
2023-02-05T03:53:57.524Z,-4.23
2023-02-05T03:55:04.555Z,-4.22
2023-02-05T03:56:16.699Z,-4.58
2023-02-05T03:57:44.310Z,-4.34
2023-02-05T03:58:46.379Z,-4.29
2023-02-05T03:59:44.033Z,-4.30
2023-02-05T04:00:41.767Z,-4.58
2023-02-05T04:01:38.558Z,-4.41
2023-02-05T04:02:35.327Z,-4.37
2023-02-05T04:03:32.080Z,-4.30
2023-02-05T04:04:28.641Z,-4.43
2023-02-05T04:05:25.465Z,-4.44
2023-02-05T04:06:22.091Z,-4.66
2023-02-05T04:07:18.736Z,-4.45
2023-02-05T04:08:15.590Z,-4.34
2023-02-05T04:09:12.255Z,-4.22
2023-02-05T04:10:10.371Z,-4.40
2023-02-05T04:11:07.482Z,-4.72
2023-02-05T04:12:04.338Z,-4.25
2023-02-05T04:13:00.893Z,-3.96
2023-02-05T04:13:57.454Z,-4.24
2023-02-05T04:14:54.070Z,-4.34
2023-02-05T04:15:51.465Z,-4.74
2023-02-05T04:16:48.045Z,-4.46
2023-02-05T04:17:44.679Z,-4.52
2023-02-05T04:18:41.276Z,-4.66
2023-02-05T04:19:37.972Z,-4.49
2023-02-05T04:20:34.652Z,-4.29
2023-02-05T04:21:31.498Z,-4.40
2023-02-05T04:22:28.054Z,-4.86
2023-02-05T04:23:24.740Z,-4.34
2023-02-05T04:24:21.395Z,-4.18
2023-02-05T04:25:18.032Z,-4.22
2023-02-05T04:26:14.633Z,-4.19
2023-02-05T04:27:11.204Z,-4.47
2023-02-05T04:28:08.243Z,-4.62
2023-02-05T04:29:04.877Z,-4.14
2023-02-05T04:30:01.537Z,-4.14
2023-02-05T04:30:58.178Z,-4.35
2023-02-05T04:31:54.874Z,-4.23
2023-02-05T04:32:51.481Z,-4.48
2023-02-05T04:33:48.101Z,-4.68
2023-02-05T04:34:44.658Z,-4.71
2023-02-05T04:35:41.251Z,-4.36
2023-02-05T04:36:37.832Z,-4.61
2023-02-05T04:37:34.466Z,-4.69
2023-02-05T04:38:31.076Z,-4.65
2023-02-05T04:39:27.698Z,-4.76
2023-02-05T04:40:24.225Z,-4.80
2023-02-05T04:41:20.858Z,-4.49
2023-02-05T04:42:17.490Z,-4.54
2023-02-05T04:43:14.060Z,-4.58
2023-02-05T04:44:10.662Z,-4.59
2023-02-05T04:45:07.745Z,-4.88
2023-02-05T04:46:09.164Z,-6.16
2023-02-05T04:47:05.823Z,-4.94
2023-02-05T04:48:02.530Z,-4.90
2023-02-05T04:48:59.134Z,-4.72
2023-02-05T04:49:55.666Z,-4.51
2023-02-05T04:50:52.365Z,-4.46
2023-02-05T04:51:48.976Z,-4.19
2023-02-05T04:52:45.618Z,-4.38
2023-02-05T04:53:42.254Z,-4.46
2023-02-05T04:54:38.988Z,-4.61
2023-02-05T04:55:36.240Z,-5.28
2023-02-05T04:56:33.068Z,-4.91
2023-02-05T04:57:31.204Z,-4.77
2023-02-05T04:58:27.780Z,-4.85
2023-02-05T04:59:24.718Z,-4.98
2023-02-05T05:00:21.562Z,-5.06
2023-02-05T05:01:21.467Z,-4.88
2023-02-05T05:02:18.239Z,-4.71
2023-02-05T05:03:14.856Z,-4.37
2023-02-05T05:04:11.480Z,-4.44
2023-02-05T05:05:08.861Z,-4.67
2023-02-05T05:06:06.180Z,-4.68
2023-02-05T05:07:02.836Z,-4.62
2023-02-05T05:08:00.026Z,-5.18
2023-02-05T05:08:56.810Z,-5.03
2023-02-05T05:09:53.409Z,-4.94
2023-02-05T05:10:50.004Z,-4.68
2023-02-05T05:11:46.580Z,-4.86
2023-02-05T05:12:43.209Z,-4.97
2023-02-05T05:13:40.495Z,-4.81
2023-02-05T05:14:37.743Z,-4.68
2023-02-05T05:15:34.626Z,-5.02
2023-02-05T05:16:31.450Z,-4.95
2023-02-05T05:17:28.718Z,-5.21
2023-02-05T05:18:25.326Z,-4.79
2023-02-05T05:19:21.913Z,-4.79
2023-02-05T05:20:18.600Z,-4.84
2023-02-05T05:21:15.176Z,-4.12
2023-02-05T05:22:11.803Z,-4.40
2023-02-05T05:23:08.453Z,-4.55
2023-02-05T05:24:05.208Z,-4.90
2023-02-05T05:25:02.028Z,-4.80
2023-02-05T05:25:58.593Z,-4.84
2023-02-05T05:26:55.145Z,-4.69
2023-02-05T05:27:51.793Z,-4.47
2023-02-05T05:28:48.501Z,-4.43
2023-02-05T05:29:46.536Z,-4.52
2023-02-05T05:30:45.188Z,-4.58
2023-02-05T05:31:42.381Z,-4.95
2023-02-05T05:32:38.992Z,-4.65
2023-02-05T05:33:36.074Z,-4.98
2023-02-05T05:34:32.672Z,-4.78
2023-02-05T05:35:29.318Z,-4.38
2023-02-05T05:36:25.983Z,-4.46
2023-02-05T05:37:22.975Z,-4.80
2023-02-05T05:38:19.579Z,-4.78
2023-02-05T05:39:34.799Z,-4.80
2023-02-05T05:40:50.978Z,-5.28
2023-02-05T05:42:05.992Z,-5.31
2023-02-05T05:43:21.498Z,-4.46
2023-02-05T05:44:18.051Z,-4.82
2023-02-05T05:45:14.705Z,-4.65
2023-02-05T05:46:11.457Z,-4.55
2023-02-05T05:47:08.123Z,-4.71
2023-02-05T05:48:05.120Z,-4.73
2023-02-05T05:49:02.991Z,-4.69
2023-02-05T05:49:59.562Z,-4.57
2023-02-05T05:50:56.265Z,-4.02
2023-02-05T05:51:52.890Z,-4.99
2023-02-05T05:52:49.495Z,-4.62
2023-02-05T05:53:46.543Z,-4.67
2023-02-05T05:54:43.188Z,-4.32
2023-02-05T05:55:39.862Z,-4.64
2023-02-05T05:56:36.549Z,-4.55
2023-02-05T05:57:33.179Z,-4.51
2023-02-05T05:58:29.765Z,-4.78
2023-02-05T05:59:26.421Z,-4.63
2023-02-05T06:00:23.101Z,-4.74
2023-02-05T06:01:22.117Z,-4.83
2023-02-05T06:02:18.919Z,-4.77
2023-02-05T06:03:16.185Z,-4.83
2023-02-05T06:04:12.834Z,-4.38
2023-02-05T06:05:09.516Z,-4.73
2023-02-05T06:06:07.918Z,-4.52
2023-02-05T06:07:04.697Z,-4.76
2023-02-05T06:08:01.247Z,-4.61
2023-02-05T06:08:57.838Z,-4.23
2023-02-05T06:09:54.518Z,-4.52
2023-02-05T06:10:51.135Z,-4.40
2023-02-05T06:11:48.808Z,-4.61
2023-02-05T06:12:46.120Z,-5.49
2023-02-05T06:13:42.750Z,-4.81
2023-02-05T06:14:39.404Z,-4.15
2023-02-05T06:15:36.479Z,-4.84
2023-02-05T06:16:33.275Z,-4.84
2023-02-05T06:17:29.876Z,-4.64
2023-02-05T06:18:26.460Z,-4.27
2023-02-05T06:19:23.608Z,-4.64
2023-02-05T06:20:20.480Z,-4.95
2023-02-05T06:21:17.082Z,-5.04
2023-02-05T06:22:14.624Z,-4.89
2023-02-05T06:23:11.285Z,-5.02
2023-02-05T06:24:08.004Z,-4.78
2023-02-05T06:25:06.094Z,-5.18
2023-02-05T06:26:02.767Z,-5.23
2023-02-05T06:26:59.457Z,-5.34
2023-02-05T06:27:56.054Z,-5.16
2023-02-05T06:28:52.723Z,-4.98
2023-02-05T06:29:49.449Z,-4.99
2023-02-05T06:30:46.059Z,-5.00
2023-02-05T06:31:42.756Z,-5.08
2023-02-05T06:32:39.388Z,-5.25
2023-02-05T06:33:36.000Z,-5.13
2023-02-05T06:34:32.619Z,-5.18
2023-02-05T06:35:29.180Z,-5.43
2023-02-05T06:36:25.824Z,-5.30
2023-02-05T06:37:34.178Z,-4.98
2023-02-05T06:38:35.155Z,-4.62
2023-02-05T06:39:31.708Z,-5.13
2023-02-05T06:40:28.472Z,-5.13
2023-02-05T06:41:25.054Z,-5.28
2023-02-05T06:42:21.964Z,-4.51
2023-02-05T06:43:18.582Z,-4.43
2023-02-05T06:44:15.293Z,-4.53
2023-02-05T06:45:12.058Z,-4.64
2023-02-05T06:46:08.719Z,-4.38
2023-02-05T06:47:05.385Z,-5.45
2023-02-05T06:48:02.060Z,-5.24
2023-02-05T06:48:58.842Z,-5.12
2023-02-05T06:49:55.486Z,-5.23
2023-02-05T06:50:52.196Z,-5.06
2023-02-05T06:51:48.841Z,-4.90
2023-02-05T06:52:45.508Z,-5.09
2023-02-05T06:53:42.090Z,-4.72
2023-02-05T06:54:38.995Z,-4.84
2023-02-05T06:55:37.874Z,-4.65
2023-02-05T06:56:34.535Z,-4.49
2023-02-05T06:57:32.052Z,-4.36
2023-02-05T06:58:28.661Z,-4.40
2023-02-05T06:59:25.357Z,-4.17
2023-02-05T07:00:22.062Z,-4.65
2023-02-05T07:01:18.895Z,-4.78
2023-02-05T07:02:16.005Z,-4.72
2023-02-05T07:03:12.596Z,-4.39
2023-02-05T07:04:09.361Z,-4.51
2023-02-05T07:05:06.459Z,-4.39
2023-02-05T07:06:04.565Z,-5.14
2023-02-05T07:07:01.175Z,-4.71
2023-02-05T07:07:57.791Z,-5.11
2023-02-05T07:08:54.850Z,-5.15
2023-02-05T07:09:51.493Z,-4.40
2023-02-05T07:10:48.047Z,-4.79
2023-02-05T07:11:44.604Z,-4.83
2023-02-05T07:12:41.869Z,-5.22
2023-02-05T07:13:38.461Z,-5.30
2023-02-05T07:14:42.091Z,-5.47
2023-02-05T07:15:38.744Z,-5.18
2023-02-05T07:16:35.701Z,-5.48
2023-02-05T07:17:32.315Z,-5.28
2023-02-05T07:18:28.984Z,-4.83
2023-02-05T07:19:25.632Z,-5.11
2023-02-05T07:20:23.386Z,-5.04
2023-02-05T07:21:20.072Z,-4.88
2023-02-05T07:22:16.724Z,-4.79
2023-02-05T07:23:13.269Z,-4.50
2023-02-05T07:24:09.846Z,-4.07
2023-02-05T07:25:06.888Z,-4.30
2023-02-05T07:26:08.516Z,-4.79
2023-02-05T07:27:05.110Z,-4.33
2023-02-05T07:28:03.108Z,-5.03
2023-02-05T07:28:59.725Z,-5.09
2023-02-05T07:29:56.282Z,-5.25
2023-02-05T07:30:52.942Z,-5.28
2023-02-05T07:31:52.737Z,-5.06
2023-02-05T07:32:49.298Z,-4.49
2023-02-05T07:33:47.616Z,-4.81
2023-02-05T07:34:44.177Z,-4.57
2023-02-05T07:35:40.731Z,-4.39
2023-02-05T07:36:37.288Z,-5.14
2023-02-05T07:37:33.992Z,-4.90
2023-02-05T07:38:30.853Z,-4.95
2023-02-05T07:39:28.308Z,-5.20
2023-02-05T07:40:25.102Z,-6.34
2023-02-05T07:41:21.830Z,-5.56
2023-02-05T07:42:18.541Z,-5.39
2023-02-05T07:43:15.160Z,-5.21
2023-02-05T07:44:12.387Z,-4.79
2023-02-05T07:45:09.438Z,-5.13
2023-02-05T07:46:09.467Z,-5.55
2023-02-05T07:47:06.006Z,-5.38
2023-02-05T07:48:02.629Z,-5.35
2023-02-05T07:48:59.258Z,-5.22
2023-02-05T07:49:55.929Z,-5.44
2023-02-05T07:50:52.539Z,-4.75
2023-02-05T07:51:49.158Z,-4.69
2023-02-05T07:52:45.827Z,-4.58
2023-02-05T07:53:42.392Z,-4.43
2023-02-05T07:54:38.957Z,-4.91
2023-02-05T07:55:35.774Z,-4.54
2023-02-05T07:56:32.580Z,-4.79
2023-02-05T07:57:29.302Z,-4.37
2023-02-05T07:58:25.875Z,-4.08
2023-02-05T07:59:22.451Z,-4.52
2023-02-05T08:00:19.387Z,-4.61
2023-02-05T08:01:16.196Z,-4.90
2023-02-05T08:02:13.324Z,-4.66
2023-02-05T08:03:10.668Z,-3.96
2023-02-05T08:04:07.396Z,-3.98
2023-02-05T08:05:04.313Z,-4.04
2023-02-05T08:06:05.367Z,-3.62
2023-02-05T08:07:02.033Z,-3.92
2023-02-05T08:07:58.625Z,-3.72
2023-02-05T08:08:56.198Z,-3.72
2023-02-05T08:09:52.813Z,-5.84
2023-02-05T08:11:05.333Z,-5.20
2023-02-05T08:12:01.924Z,-5.11
2023-02-05T08:12:58.829Z,-4.89
2023-02-05T08:13:55.485Z,-4.46
2023-02-05T08:14:52.835Z,-4.60
2023-02-05T08:15:49.420Z,-4.25
2023-02-05T08:16:46.039Z,-3.71
2023-02-05T08:17:42.781Z,-3.96
2023-02-05T08:18:39.406Z,-5.27
2023-02-05T08:19:36.138Z,-4.08
2023-02-05T08:20:32.900Z,-3.50
2023-02-05T08:21:29.497Z,-3.93
2023-02-05T08:22:26.147Z,-5.02
2023-02-05T08:23:23.120Z,-4.52
2023-02-05T08:24:19.712Z,-3.54
2023-02-05T08:25:16.350Z,-3.80
2023-02-05T08:26:15.034Z,-3.85
2023-02-05T08:27:11.659Z,-3.82
2023-02-05T08:28:09.369Z,-3.55
2023-02-05T08:29:08.258Z,-3.46
2023-02-05T08:30:06.813Z,-3.45
2023-02-05T08:31:10.075Z,-4.32
2023-02-05T08:32:06.772Z,-4.32
2023-02-05T08:33:03.588Z,-3.72
2023-02-05T08:34:00.407Z,-3.77
2023-02-05T08:34:57.042Z,-3.28
2023-02-05T08:35:53.725Z,-2.74
2023-02-05T08:36:50.421Z,-3.01
2023-02-05T08:37:47.324Z,-3.77
2023-02-05T08:38:44.044Z,-4.22
2023-02-05T08:39:41.965Z,-4.64
2023-02-05T08:40:41.193Z,-3.86
2023-02-05T08:41:37.887Z,-3.28
2023-02-05T08:42:34.921Z,-3.36
2023-02-05T08:43:31.537Z,-4.53
2023-02-05T08:44:28.788Z,-3.63
2023-02-05T08:45:25.421Z,-2.92
2023-02-05T08:46:25.986Z,-4.23
2023-02-05T08:47:23.443Z,-3.50
2023-02-05T08:48:20.131Z,-3.96
2023-02-05T08:49:17.342Z,-3.16
2023-02-05T08:50:13.957Z,-3.47
2023-02-05T08:51:12.336Z,-4.63
2023-02-05T08:52:09.058Z,-4.58
2023-02-05T08:53:07.126Z,-4.72
2023-02-05T08:54:05.709Z,-4.23
2023-02-05T08:55:02.329Z,-4.44
2023-02-05T08:56:01.121Z,-4.37
2023-02-05T08:56:57.794Z,-4.99
2023-02-05T08:57:54.464Z,-4.27
2023-02-05T08:58:51.111Z,-3.25
2023-02-05T08:59:48.469Z,-3.28
2023-02-05T09:00:45.368Z,-4.10
2023-02-05T09:01:43.310Z,-3.47
2023-02-05T09:02:41.818Z,-3.92
2023-02-05T09:03:40.835Z,-3.72
2023-02-05T09:04:38.913Z,-3.03
2023-02-05T09:05:35.782Z,-2.78
2023-02-05T09:06:32.890Z,-3.68
2023-02-05T09:07:30.605Z,-4.14
2023-02-05T09:08:29.804Z,-3.66
2023-02-05T09:09:27.562Z,-3.90
2023-02-05T09:10:24.315Z,-4.12
2023-02-05T09:11:22.446Z,-3.35
2023-02-05T09:12:19.062Z,-3.35
2023-02-05T09:13:15.743Z,-4.22
2023-02-05T09:14:13.723Z,-4.24
2023-02-05T09:15:10.724Z,-4.04
2023-02-05T09:16:11.252Z,-3.77
2023-02-05T09:17:10.223Z,-3.85
2023-02-05T09:18:06.858Z,-3.12
2023-02-05T09:19:03.505Z,-2.65
2023-02-05T09:20:00.225Z,-2.57
2023-02-05T09:20:57.097Z,-3.23
2023-02-05T09:21:54.284Z,-2.78
2023-02-05T09:22:54.032Z,-3.75
2023-02-05T09:23:51.803Z,-3.72
2023-02-05T09:24:48.363Z,-3.28
2023-02-05T09:25:44.989Z,-3.30
2023-02-05T09:26:41.581Z,-2.86
2023-02-05T09:27:38.191Z,-2.65
2023-02-05T09:28:35.562Z,-1.92
2023-02-05T09:29:32.224Z,-1.84
2023-02-05T09:30:28.968Z,-2.10
2023-02-05T09:31:25.930Z,-3.26
2023-02-05T09:32:22.582Z,-3.21
2023-02-05T09:33:19.148Z,-3.63
2023-02-05T09:34:15.783Z,-3.61
2023-02-05T09:35:12.721Z,-3.62
2023-02-05T09:36:15.079Z,-2.85
2023-02-05T09:37:11.597Z,-2.90
2023-02-05T09:38:08.286Z,-2.52
2023-02-05T09:39:17.453Z,-2.91
2023-02-05T09:40:28.478Z,-2.85
2023-02-05T09:41:44.031Z,-3.08
2023-02-05T09:43:03.490Z,-3.61
2023-02-05T09:44:13.087Z,-2.60
2023-02-05T09:45:32.729Z,-2.96
2023-02-05T09:46:38.642Z,-3.83
2023-02-05T09:47:50.501Z,-4.17
2023-02-05T09:49:00.903Z,-4.49
2023-02-05T09:50:29.128Z,-3.74
2023-02-05T09:51:43.403Z,-3.59
2023-02-05T09:52:44.981Z,-3.87
2023-02-05T09:53:45.929Z,-4.13
2023-02-05T09:54:47.180Z,-4.24
2023-02-05T09:55:46.026Z,-3.55
2023-02-05T09:56:44.793Z,-3.58
2023-02-05T09:57:42.051Z,-4.40
2023-02-05T09:59:06.011Z,-4.29
2023-02-05T10:00:06.643Z,-4.25
2023-02-05T10:01:10.390Z,-4.49
2023-02-05T10:02:31.292Z,-4.11
2023-02-05T10:03:50.022Z,-3.30
2023-02-05T10:04:46.730Z,-3.17
2023-02-05T10:06:22.196Z,-3.32
2023-02-05T10:07:27.313Z,-4.24
2023-02-05T10:08:36.320Z,-4.00
2023-02-05T10:09:42.597Z,-4.61
2023-02-05T10:10:45.868Z,-3.67
2023-02-05T10:12:06.321Z,-4.07
2023-02-05T10:13:05.755Z,-3.64
2023-02-05T10:14:10.957Z,-4.03
2023-02-05T10:15:25.916Z,-3.18
2023-02-05T10:16:44.043Z,-2.08
2023-02-05T10:17:55.633Z,-2.08
2023-02-05T10:19:19.646Z,-3.31
2023-02-05T10:20:31.170Z,-2.57
2023-02-05T10:21:49.424Z,-3.00
2023-02-05T10:23:10.731Z,-2.37
2023-02-05T10:24:35.526Z,-1.71
2023-02-05T10:26:01.141Z,-2.38
2023-02-05T10:27:12.704Z,-1.32
2023-02-05T10:28:32.285Z,-1.77
2023-02-05T10:29:52.177Z,-2.61
2023-02-05T10:31:04.658Z,-1.91
2023-02-05T10:32:36.336Z,-3.50
2023-02-05T10:33:49.601Z,-2.35
2023-02-05T10:35:07.182Z,-2.58
2023-02-05T10:36:06.883Z,-1.62
2023-02-05T10:37:12.000Z,-1.85
2023-02-05T10:38:16.738Z,-1.89
2023-02-05T10:39:16.233Z,-3.04
2023-02-05T10:40:21.143Z,-1.84
2023-02-05T10:41:30.627Z,-1.91
2023-02-05T10:42:42.052Z,-1.73
2023-02-05T10:43:42.207Z,-2.26
2023-02-05T10:44:43.826Z,-3.44
2023-02-05T10:45:43.708Z,-3.05
2023-02-05T10:46:44.126Z,-2.98
2023-02-05T10:47:48.869Z,-1.91
2023-02-05T10:49:11.580Z,-2.94
2023-02-05T10:50:15.062Z,-3.44
2023-02-05T10:51:20.885Z,-2.39
2023-02-05T10:52:17.777Z,-2.92
2023-02-05T10:53:19.558Z,-2.43
2023-02-05T10:54:23.528Z,-1.88
2023-02-05T10:55:20.395Z,-1.37
2023-02-05T10:56:19.483Z,-0.98
2023-02-05T10:57:21.882Z,-1.68
2023-02-05T10:58:33.634Z,-1.06
2023-02-05T10:59:33.649Z,-0.82
2023-02-05T11:00:30.636Z,-0.46
2023-02-05T11:01:34.219Z,-1.20
2023-02-05T11:02:38.572Z,-1.68
2023-02-05T11:03:36.095Z,-2.08
2023-02-05T11:04:44.070Z,-1.90
2023-02-05T11:05:41.748Z,-1.36
2023-02-05T11:06:41.991Z,-1.02
2023-02-05T11:07:43.541Z,-1.59
2023-02-05T11:08:44.813Z,-1.35
2023-02-05T11:09:41.492Z,-2.08
2023-02-05T11:10:38.446Z,-2.01
2023-02-05T11:11:35.555Z,-1.76
2023-02-05T11:12:32.836Z,-1.19
2023-02-05T11:13:30.204Z,-2.27
2023-02-05T11:14:41.040Z,-1.69
2023-02-05T11:15:50.324Z,-2.04
2023-02-05T11:16:47.161Z,-2.08
2023-02-05T11:17:44.047Z,-2.30
2023-02-05T11:18:44.481Z,-2.46
2023-02-05T11:19:41.275Z,-1.37
2023-02-05T11:20:39.259Z,-1.37
2023-02-05T11:21:57.568Z,-1.98
2023-02-05T11:23:27.731Z,-1.87
2023-02-05T11:24:41.163Z,-2.05
2023-02-05T11:26:08.995Z,-1.90
2023-02-05T11:27:31.748Z,-2.61
2023-02-05T11:28:36.163Z,-3.51
2023-02-05T11:29:32.754Z,-2.83
2023-02-05T11:30:52.912Z,-2.71
2023-02-05T11:31:49.916Z,-3.02
2023-02-05T11:32:46.579Z,-2.93
2023-02-05T11:33:43.204Z,-3.23
2023-02-05T11:34:42.637Z,-3.33
2023-02-05T11:35:39.318Z,-2.65
2023-02-05T11:36:40.421Z,-2.86
2023-02-05T11:37:40.519Z,-2.77
2023-02-05T11:38:44.974Z,-2.53
2023-02-05T11:39:43.123Z,-2.35
2023-02-05T11:40:39.726Z,-2.48
2023-02-05T11:41:52.168Z,-1.94
2023-02-05T11:42:59.795Z,-2.85
2023-02-05T11:43:59.772Z,-3.25
2023-02-05T11:45:02.820Z,-3.38
2023-02-05T11:46:01.959Z,-3.23
2023-02-05T11:47:01.832Z,-2.16
2023-02-05T11:48:04.254Z,-2.21
2023-02-05T11:49:01.867Z,-3.00
2023-02-05T11:49:59.311Z,-2.94
2023-02-05T11:50:56.005Z,-2.56
2023-02-05T11:51:56.495Z,-1.67
2023-02-05T11:52:55.600Z,-2.58
2023-02-05T11:53:59.467Z,-2.22
2023-02-05T11:54:56.663Z,-2.36
2023-02-05T11:56:07.956Z,-2.73
2023-02-05T11:57:14.062Z,-2.24
2023-02-05T11:58:31.590Z,-2.08
2023-02-05T11:59:34.121Z,-2.20
2023-02-05T12:00:31.004Z,-2.00
2023-02-05T12:01:33.916Z,-2.17
2023-02-05T12:02:34.788Z,-3.00
2023-02-05T12:03:34.116Z,-3.25
2023-02-05T12:04:40.815Z,-3.40
2023-02-05T12:05:44.408Z,-3.23
2023-02-05T12:06:46.093Z,-3.14
2023-02-05T12:07:58.080Z,-2.43
2023-02-05T12:08:55.076Z,-3.15
2023-02-05T12:09:58.814Z,-3.68
2023-02-05T12:11:04.466Z,-3.04
2023-02-05T12:12:39.352Z,-3.31
2023-02-05T12:14:04.267Z,-3.45
2023-02-05T12:15:06.894Z,-3.44
2023-02-05T12:16:18.458Z,-3.86
2023-02-05T12:17:15.100Z,-3.93
2023-02-05T12:18:21.497Z,-3.79
2023-02-05T12:19:19.706Z,-3.40
2023-02-05T12:20:33.389Z,-3.74
2023-02-05T12:22:15.070Z,-3.71
2023-02-05T12:23:33.291Z,-4.29
2023-02-05T12:24:32.799Z,-3.87
2023-02-05T12:25:52.829Z,-3.83
2023-02-05T12:26:57.107Z,-3.96
2023-02-05T12:28:24.975Z,-4.13
2023-02-05T12:29:47.025Z,-3.62
2023-02-05T12:30:43.681Z,-3.78
2023-02-05T12:32:11.318Z,-3.96
2023-02-05T12:33:23.938Z,-4.20
2023-02-05T12:34:56.845Z,-4.38
2023-02-05T12:36:14.723Z,-4.24
2023-02-05T12:37:46.821Z,-3.43
2023-02-05T12:39:20.668Z,-3.52
2023-02-05T12:40:49.803Z,-3.08
2023-02-05T12:41:57.481Z,-3.84
2023-02-05T12:43:05.974Z,-4.04
2023-02-05T12:44:32.345Z,-4.27
2023-02-05T12:45:49.428Z,-4.17
2023-02-05T12:46:49.228Z,-4.17
2023-02-05T12:48:07.714Z,-3.99
2023-02-05T12:49:07.409Z,-3.80
2023-02-05T12:50:25.231Z,-4.07
2023-02-05T12:51:36.934Z,-3.95
2023-02-05T12:52:51.704Z,-3.71
2023-02-05T12:54:06.740Z,-3.82
2023-02-05T12:55:18.646Z,-4.41
2023-02-05T12:56:21.295Z,-4.44
2023-02-05T12:57:39.096Z,-4.24
2023-02-05T12:58:53.660Z,-4.30
2023-02-05T12:59:55.433Z,-4.36
2023-02-05T13:00:57.352Z,-4.42
2023-02-05T13:02:23.586Z,-4.37
2023-02-05T13:03:39.509Z,-4.29
2023-02-05T13:04:44.856Z,-4.28
2023-02-05T13:05:59.867Z,-4.61
2023-02-05T13:07:19.674Z,-4.02
2023-02-05T13:08:23.737Z,-3.88
2023-02-05T13:09:26.327Z,-4.12